Time;durP1;ratioP1;P1;durP2;ratioP2;P2;SDS_P1;SDS_P2;PMS_P1;PMS_P2;Temp;Humidity;BMP_temperature;BMP_pressure;BME280_temperature;BME280_humidity;BME280_pressure;Samples;Min_cycle;Max_cycle;Signal;HPM_P1;HPM_P2
2022/03/23 00:00:27;;;;;;;18.67;8.43;;;;;;;2.52;66.27;100033.41;5036824;28;20108;-76
2022/03/23 00:02:53;;;;;;;14.27;7.95;;;;;;;2.30;66.54;99983.50;5050986;28;20071;-75
2022/03/23 00:05:18;;;;;;;13.52;8.50;;;;;;;2.71;66.60;100006.06;5049440;28;20025;-76
2022/03/23 00:07:44;;;;;;;17.33;8.88;;;;;;;2.92;66.44;100018.69;5032078;28;20041;-76
2022/03/23 00:10:10;;;;;;;15.55;8.10;;;;;;;3.03;66.23;100034.69;5056556;28;20025;-75
2022/03/23 00:12:36;;;;;;;15.93;8.05;;;;;;;3.06;66.04;100040.63;5036799;28;20041;-76
2022/03/23 00:15:01;;;;;;;15.90;8.00;;;;;;;2.80;65.95;100009.81;5034388;28;20036;-76
2022/03/23 00:17:27;;;;;;;14.38;7.75;;;;;;;2.81;66.19;100024.91;5044407;28;20021;-76
2022/03/23 00:19:52;;;;;;;15.95;7.88;;;;;;;2.54;66.59;100011.91;5035219;28;20021;-75
2022/03/23 00:22:18;;;;;;;16.50;8.52;;;;;;;2.18;67.43;99996.03;5037496;28;20113;-76
2022/03/23 00:24:43;;;;;;;13.95;7.60;;;;;;;2.26;67.83;100024.78;5034625;28;20017;-76
2022/03/23 00:27:09;;;;;;;13.50;7.00;;;;;;;2.03;67.76;100012.38;5032855;28;20033;-75
2022/03/23 00:29:35;;;;;;;17.88;7.70;;;;;;;2.13;67.81;100014.22;5040125;28;20020;-76
2022/03/23 00:32:00;;;;;;;15.40;7.10;;;;;;;2.11;67.96;100025.97;5047868;28;20028;-76
2022/03/23 00:34:25;;;;;;;15.88;7.18;;;;;;;1.98;67.81;99999.38;5037030;28;20022;-76
2022/03/23 00:36:51;;;;;;;13.80;6.90;;;;;;;1.87;68.05;100013.56;5039234;28;20029;-74
2022/03/23 00:39:16;;;;;;;17.73;7.60;;;;;;;1.49;68.53;99960.47;5028408;28;20112;-75
2022/03/23 00:41:42;;;;;;;10.25;5.65;;;;;;;1.77;69.01;100012.56;5038408;28;20038;-74
2022/03/23 00:44:07;;;;;;;13.27;6.57;;;;;;;1.68;68.84;100010.63;5038124;28;20470;-74
2022/03/23 00:46:32;;;;;;;12.02;6.85;;;;;;;1.83;69.61;100041.44;5038343;28;20072;-74
2022/03/23 00:48:58;;;;;;;11.40;6.40;;;;;;;1.77;69.30;100033.06;5053237;28;20037;-75
2022/03/23 00:51:23;;;;;;;12.23;6.80;;;;;;;1.64;69.13;100022.47;5044184;28;20057;-74
2022/03/23 00:53:49;;;;;;;14.23;7.28;;;;;;;1.57;69.05;100024.75;5040946;28;20446;-74
2022/03/23 00:56:14;;;;;;;13.23;7.00;;;;;;;1.54;69.64;100036.50;5019053;28;20108;-76
2022/03/23 00:58:39;;;;;;;16.20;6.97;;;;;;;1.43;70.22;100032.94;5030146;28;20022;-74
2022/03/23 01:01:05;;;;;;;14.55;6.40;;;;;;;1.41;71.18;100033.03;5041613;28;20063;-77
2022/03/23 01:03:30;;;;;;;12.07;6.82;;;;;;;1.26;71.43;99995.06;5042023;28;20052;-76
2022/03/23 01:05:56;;;;;;;12.55;6.95;;;;;;;1.37;71.43;100020.94;5033928;28;20026;-76
2022/03/23 01:08:21;;;;;;;13.50;6.68;;;;;;;1.38;71.19;100041.28;5025805;28;20479;-75
2022/03/23 01:10:46;;;;;;;17.00;6.88;;;;;;;1.25;70.96;100027.16;5049493;28;20028;-77
2022/03/23 01:13:12;;;;;;;14.07;7.75;;;;;;;1.24;71.34;100021.00;5042208;28;20036;-74
2022/03/23 01:15:37;;;;;;;15.88;7.78;;;;;;;1.39;70.65;99999.47;5035081;28;20017;-74
2022/03/23 01:18:04;;;;;;;11.52;6.90;;;;;;;1.77;69.49;100030.41;5037453;28;20493;-75
2022/03/23 01:20:30;;;;;;;13.05;7.18;;;;;;;1.50;69.50;100023.53;5033677;28;20025;-74
2022/03/23 01:22:56;;;;;;;12.68;6.97;;;;;;;1.57;70.20;100029.22;5027310;28;20498;-75
2022/03/23 01:25:21;;;;;;;13.73;7.20;;;;;;;1.13;70.07;99985.41;5031455;28;20047;-74
2022/03/23 01:27:47;;;;;;;10.98;6.20;;;;;;;1.25;70.14;100032.50;5028811;28;20407;-75
2022/03/23 01:30:14;;;;;;;11.60;7.10;;;;;;;1.06;70.85;99999.22;5037253;28;20064;-75
2022/03/23 01:32:41;;;;;;;10.82;6.15;;;;;;;1.23;71.57;100029.97;5034696;28;20490;-75
2022/03/23 01:35:07;;;;;;;14.18;7.22;;;;;;;1.12;72.33;100010.38;5033130;28;20471;-75
2022/03/23 01:37:33;;;;;;;14.23;7.07;;;;;;;1.20;71.61;100008.84;5031577;28;20051;-75
2022/03/23 01:39:58;;;;;;;13.32;7.40;;;;;;;1.15;71.06;100028.81;5032607;28;20471;-74
2022/03/23 01:42:26;;;;;;;16.02;7.55;;;;;;;1.39;71.22;100027.00;5032439;28;20071;-75
2022/03/23 01:44:52;;;;;;;14.25;7.78;;;;;;;1.07;71.04;99998.25;5038557;28;20052;-74
2022/03/23 01:47:18;;;;;;;13.63;6.82;;;;;;;0.76;71.88;99982.78;5027667;28;20099;-74
2022/03/23 01:49:47;;;;;;;13.82;7.43;;;;;;;1.10;72.71;100031.81;5039196;28;20029;-75
2022/03/23 01:52:15;;;;;;;12.32;7.53;;;;;;;1.15;73.53;100026.13;5044865;28;20044;-74
2022/03/23 01:54:41;;;;;;;13.65;7.80;;;;;;;1.10;74.00;100034.47;5033229;28;20028;-74
2022/03/23 01:57:08;;;;;;;13.90;7.72;;;;;;;0.91;74.74;100010.97;5035501;28;20071;-76
2022/03/23 01:59:35;;;;;;;13.40;7.95;;;;;;;0.99;73.96;100000.63;5030256;28;20067;-75
2022/03/23 02:02:08;;;;;;;15.98;7.60;;;;;;;1.22;73.98;100032.72;5012526;28;20038;-75
2022/03/23 02:04:34;;;;;;;15.00;7.32;;;;;;;1.12;74.02;100021.03;5011615;28;20033;-75
2022/03/23 02:06:59;;;;;;;16.13;8.05;;;;;;;0.79;74.67;99993.25;5031286;28;20031;-75
2022/03/23 02:09:27;;;;;;;17.30;8.38;;;;;;;0.74;75.08;100014.03;5038497;28;20025;-76
2022/03/23 02:11:54;;;;;;;14.13;7.50;;;;;;;0.84;75.66;100031.06;5031164;28;20029;-75
2022/03/23 02:14:20;;;;;;;13.00;8.10;;;;;;;0.74;75.49;100019.38;5052572;28;20021;-76
2022/03/23 02:16:47;;;;;;;15.48;7.82;;;;;;;0.46;75.42;99986.72;5035697;28;21140;-75
2022/03/23 02:19:13;;;;;;;14.32;7.70;;;;;;;0.64;75.64;100036.00;5050170;28;20128;-76
2022/03/23 02:21:42;;;;;;;13.32;7.88;;;;;;;0.32;75.78;100006.34;5029057;28;20128;-76
2022/03/23 02:24:09;;;;;;;18.33;7.80;;;;;;;0.17;76.32;99994.13;5042291;28;20052;-76
2022/03/23 02:26:35;;;;;;;17.40;7.90;;;;;;;0.39;76.48;100014.72;5038562;28;20075;-75
2022/03/23 02:29:01;;;;;;;16.23;8.13;;;;;;;0.47;77.21;100025.69;5034231;28;20025;-76
2022/03/23 02:31:26;;;;;;;14.77;7.25;;;;;;;0.53;76.05;100027.09;5035714;28;20021;-75
2022/03/23 02:33:53;;;;;;;14.18;7.88;;;;;;;0.42;74.65;100027.84;5036757;28;20104;-76
2022/03/23 02:36:18;;;;;;;17.10;8.05;;;;;;;0.36;75.32;100029.13;5031123;28;20025;-76
2022/03/23 02:38:43;;;;;;;13.68;7.55;;;;;;;0.32;75.32;100024.13;5046025;28;20021;-75
2022/03/23 02:41:09;;;;;;;13.20;7.63;;;;;;;0.36;75.69;100042.41;5047393;28;20023;-74
2022/03/23 02:43:35;;;;;;;11.63;7.35;;;;;;;0.18;76.36;100041.03;5058382;28;20040;-76
2022/03/23 02:46:01;;;;;;;13.98;7.32;;;;;;;0.01;76.89;100020.09;5050116;28;20025;-74
2022/03/23 02:48:26;;;;;;;14.55;7.88;;;;;;;0.02;76.81;100012.00;5042793;28;20774;-74
2022/03/23 02:50:51;;;;;;;15.57;7.53;;;;;;;-0.09;76.75;100022.53;5031770;28;20053;-75
2022/03/23 03:02:14;;;;;;;12.35;6.55;;;;;;;-0.10;77.99;99988.94;5033293;28;20087;-75
2022/03/23 03:04:40;;;;;;;11.00;6.43;;;;;;;0.07;77.47;100039.13;5038650;28;20036;-75
2022/03/23 03:07:05;;;;;;;13.85;7.00;;;;;;;0.05;77.08;100041.03;5040465;28;20104;-75
2022/03/23 03:09:31;;;;;;;12.77;7.40;;;;;;;-0.12;77.61;100025.41;5034367;28;20022;-76
2022/03/23 03:11:56;;;;;;;11.48;6.97;;;;;;;-0.22;77.58;100007.41;5037587;28;20024;-76
2022/03/23 03:14:22;;;;;;;12.82;7.32;;;;;;;-0.04;77.48;100036.38;5042609;28;20018;-76
2022/03/23 03:16:47;;;;;;;11.63;6.47;;;;;;;-0.14;77.32;100024.66;5042491;28;20029;-76
2022/03/23 03:19:12;;;;;;;14.45;7.07;;;;;;;-0.06;77.71;100043.59;5034387;28;20060;-76
2022/03/23 03:21:38;;;;;;;13.23;6.40;;;;;;;-0.10;77.51;100055.41;5039721;28;20040;-76
2022/03/23 03:24:04;;;;;;;14.38;6.90;;;;;;;-0.31;77.86;100028.47;5052446;28;20036;-76
2022/03/23 03:26:32;;;;;;;11.23;6.80;;;;;;;-0.39;77.24;100023.69;5047350;28;20071;-76
2022/03/23 03:28:58;;;;;;;12.70;7.40;;;;;;;-0.27;78.50;100035.28;5070876;22;20132;-75
2022/03/23 03:31:23;;;;;;;17.38;7.47;;;;;;;-0.31;78.94;100024.00;5042468;28;20295;-75
2022/03/23 03:33:49;;;;;;;12.30;6.93;;;;;;;-0.19;78.39;100058.69;5046242;28;20044;-75
2022/03/23 03:36:15;;;;;;;18.35;7.30;;;;;;;-0.06;78.04;100054.25;5047157;28;20124;-75
2022/03/23 03:38:41;;;;;;;15.10;7.13;;;;;;;-0.22;77.76;100034.00;5045425;28;20418;-75
2022/03/23 03:41:08;;;;;;;15.00;7.85;;;;;;;-0.18;78.07;100034.66;5044152;28;20033;-75
2022/03/23 03:43:33;;;;;;;13.63;7.53;;;;;;;-0.27;77.68;100051.22;5033135;28;20018;-75
2022/03/23 03:46:00;;;;;;;15.18;7.45;;;;;;;-0.36;78.61;100031.44;5033881;28;20552;-75
2022/03/23 03:48:25;;;;;;;13.52;7.60;;;;;;;-0.30;78.78;100039.00;5032872;28;20036;-75
2022/03/23 03:50:51;;;;;;;12.13;6.95;;;;;;;-0.18;78.21;100055.06;5026770;28;20018;-75
2022/03/23 03:53:17;;;;;;;15.95;7.15;;;;;;;-0.41;77.97;100032.72;5035894;28;20033;-75
2022/03/23 03:55:43;;;;;;;17.73;8.00;;;;;;;-0.37;79.09;100036.84;5030053;28;20099;-75
2022/03/23 03:58:09;;;;;;;14.63;7.30;;;;;;;-0.45;78.92;100046.22;5034998;28;20112;-75
2022/03/23 04:00:35;;;;;;;12.68;7.05;;;;;;;-0.45;78.99;100053.31;5033980;28;20105;-75
2022/03/23 04:03:02;;;;;;;12.52;7.00;;;;;;;-0.41;79.42;100065.47;5032252;28;20031;-76
2022/03/23 04:05:28;;;;;;;17.38;7.78;;;;;;;-0.59;80.04;100040.09;5044425;28;20032;-75
2022/03/23 04:07:57;;;;;;;11.88;6.38;;;;;;;-0.40;79.88;100061.00;5039409;28;20040;-75
2022/03/23 04:10:24;;;;;;;11.73;5.65;;;;;;;-0.56;79.63;100039.91;5035880;28;20079;-75
2022/03/23 04:12:49;;;;;;;13.85;7.20;;;;;;;-0.48;79.14;100037.56;5036700;28;20032;-75
2022/03/23 04:15:15;;;;;;;16.00;8.13;;;;;;;-0.38;77.66;100070.56;5033092;28;20096;-75
2022/03/23 04:17:41;;;;;;;13.45;7.70;;;;;;;-0.67;77.96;100016.69;5040913;28;20028;-76
2022/03/23 04:20:08;;;;;;;11.77;7.13;;;;;;;-0.57;78.61;100043.53;5041065;28;20032;-75
2022/03/23 04:22:33;;;;;;;11.82;7.10;;;;;;;-0.61;78.88;100066.78;5029640;28;20017;-75
2022/03/23 04:24:59;;;;;;;16.00;7.45;;;;;;;-0.62;80.14;100067.75;5033959;28;20394;-75
2022/03/23 04:27:24;;;;;;;17.27;7.93;;;;;;;-0.72;79.55;100062.16;5033855;28;20101;-75
2022/03/23 04:29:49;;;;;;;13.85;7.45;;;;;;;-0.98;79.96;100025.81;5032488;28;20025;-75
2022/03/23 04:32:15;;;;;;;14.10;7.20;;;;;;;-0.78;80.02;100081.19;5027856;28;20052;-75
2022/03/23 04:34:40;;;;;;;12.60;7.30;;;;;;;-1.00;80.66;100048.97;5022674;28;20026;-76
2022/03/23 04:37:05;;;;;;;17.30;7.82;;;;;;;-0.98;80.63;100055.88;5042056;28;20367;-76
2022/03/23 04:39:31;;;;;;;17.27;7.32;;;;;;;-0.93;81.07;100063.56;5038877;28;20013;-75
2022/03/23 04:41:56;;;;;;;15.73;7.05;;;;;;;-1.03;80.50;100036.75;5037755;28;20021;-75
2022/03/23 04:44:22;;;;;;;17.27;7.70;;;;;;;-0.77;80.15;100066.09;5032237;28;20401;-75
2022/03/23 04:46:47;;;;;;;14.40;7.50;;;;;;;-0.64;79.93;100074.94;5033171;28;20025;-75
2022/03/23 04:49:13;;;;;;;13.95;7.22;;;;;;;-0.80;80.45;100059.16;5030595;28;20382;-75
2022/03/23 04:51:38;;;;;;;12.63;7.00;;;;;;;-0.83;80.34;100077.13;5045244;28;20386;-75
2022/03/23 04:54:04;;;;;;;12.73;7.03;;;;;;;-0.86;81.84;100083.47;5025069;28;20033;-76
2022/03/23 04:56:29;;;;;;;11.45;6.43;;;;;;;-0.88;80.61;100083.56;5040776;28;20437;-74
2022/03/23 04:58:56;;;;;;;14.73;7.30;;;;;;;-0.87;80.96;100063.16;5022688;28;20664;-74
2022/03/23 05:01:21;;;;;;;15.27;7.47;;;;;;;-0.80;80.82;100088.38;5018875;28;20075;-73
2022/03/23 05:03:47;;;;;;;15.65;7.90;;;;;;;-0.65;80.62;100088.34;5033730;28;20100;-72
2022/03/23 05:06:12;;;;;;;13.02;7.40;;;;;;;-0.84;80.03;100070.94;5027515;28;20049;-74
2022/03/23 05:08:38;;;;;;;12.57;7.00;;;;;;;-0.90;80.05;100064.22;5026841;28;20026;-76
2022/03/23 05:11:03;;;;;;;11.68;6.50;;;;;;;-1.01;79.68;100068.53;5032209;28;20375;-70
2022/03/23 05:13:28;;;;;;;10.32;5.97;;;;;;;-0.99;81.53;100078.09;5026565;28;20057;-72
2022/03/23 05:15:54;;;;;;;12.45;6.55;;;;;;;-0.83;80.62;100096.56;5038477;28;20032;-69
2022/03/23 05:18:19;;;;;;;17.33;7.57;;;;;;;-0.96;80.58;100087.69;5049309;28;20107;-69
2022/03/23 05:20:45;;;;;;;11.93;7.13;;;;;;;-0.93;80.90;100084.81;5027098;28;20116;-75
2022/03/23 05:23:10;;;;;;;13.88;6.88;;;;;;;-0.97;81.23;100099.22;5028199;28;20669;-73
2022/03/23 05:25:36;;;;;;;10.55;6.55;;;;;;;-1.00;81.78;100099.44;5039821;28;20025;-76
2022/03/23 05:28:01;;;;;;;13.50;7.03;;;;;;;-0.94;81.89;100101.72;5031789;28;20026;-75
2022/03/23 05:30:27;;;;;;;12.40;6.25;;;;;;;-1.04;80.62;100097.94;5030993;28;20025;-77
2022/03/23 05:32:52;;;;;;;16.95;6.82;;;;;;;-0.85;81.30;100114.41;5031967;28;20031;-75
2022/03/23 05:35:17;;;;;;;13.57;6.97;;;;;;;-0.86;81.43;100096.75;5030249;28;20105;-73
2022/03/23 05:37:43;;;;;;;11.95;7.13;;;;;;;-0.81;81.04;100073.41;5027517;28;20509;-69
2022/03/23 05:40:10;;;;;;;16.15;7.13;;;;;;;-0.50;80.52;100113.91;5030569;28;20025;-77
2022/03/23 05:42:35;;;;;;;17.27;7.68;;;;;;;-0.51;79.88;100097.13;5026729;28;20066;-71
2022/03/23 05:45:01;;;;;;;13.68;7.35;;;;;;;-0.55;79.63;100082.34;5034788;28;20025;-74
2022/03/23 05:47:26;;;;;;;12.82;6.68;;;;;;;-0.38;79.63;100091.84;5027323;28;20025;-74
2022/03/23 05:49:52;;;;;;;14.90;7.20;;;;;;;0.06;78.02;100082.69;5042438;28;20382;-73
2022/03/23 05:52:17;;;;;;;19.90;8.50;;;;;;;1.56;72.85;100120.91;5021624;28;20064;-72
2022/03/23 05:54:42;;;;;;;15.57;7.82;;;;;;;3.13;64.85;100078.44;5030349;28;20029;-76
2022/03/23 05:57:08;;;;;;;15.50;6.50;;;;;;;3.96;59.86;100068.91;5043045;28;20475;-72
2022/03/23 05:59:33;;;;;;;15.75;7.22;;;;;;;5.21;55.91;100081.22;5031587;28;20033;-76
2022/03/23 06:01:59;;;;;;;12.60;7.35;;;;;;;6.13;53.50;100107.75;5028581;28;20033;-76
2022/03/23 06:04:25;;;;;;;15.65;8.63;;;;;;;6.90;51.00;100080.81;5023793;28;20076;-76
2022/03/23 06:06:50;;;;;;;15.00;7.30;;;;;;;7.63;48.96;100096.97;5012249;28;20017;-70
2022/03/23 06:09:15;;;;;;;15.35;8.45;;;;;;;7.58;48.06;100091.19;5033737;28;20108;-73
2022/03/23 06:11:42;;;;;;;15.95;8.55;;;;;;;8.19;47.08;100081.47;5040422;28;20032;-72
2022/03/23 06:14:07;;;;;;;18.13;7.60;;;;;;;8.94;45.50;100085.34;5035286;28;20375;-77
2022/03/23 06:16:32;;;;;;;19.92;10.68;;;;;;;9.05;44.94;100086.91;5051740;28;20017;-72
2022/03/23 06:19:01;;;;;;;17.60;7.88;;;;;;;9.93;44.14;100091.88;5058265;28;20024;-72
2022/03/23 06:21:26;;;;;;;14.45;7.38;;;;;;;10.43;41.89;100098.19;5036575;28;20060;-71
2022/03/23 06:23:52;;;;;;;17.58;8.82;;;;;;;11.10;40.29;100111.38;5029481;28;20049;-72
2022/03/23 06:26:17;;;;;;;16.63;9.77;;;;;;;11.72;39.17;100086.19;5028594;28;20513;-72
2022/03/23 06:28:42;;;;;;;16.35;9.27;;;;;;;12.11;38.09;100096.97;5037761;28;20021;-73
2022/03/23 06:31:08;;;;;;;13.15;8.98;;;;;;;11.60;38.73;100112.84;5042687;28;20024;-72
2022/03/23 06:33:33;;;;;;;13.82;8.40;;;;;;;11.76;39.35;100095.63;5036702;28;20027;-74
2022/03/23 06:35:58;;;;;;;15.95;7.55;;;;;;;12.77;36.78;100101.78;5040348;28;20028;-73
2022/03/23 06:38:24;;;;;;;14.60;7.55;;;;;;;12.47;37.63;100099.88;5036121;28;20018;-73
2022/03/23 06:40:49;;;;;;;15.07;7.40;;;;;;;12.67;36.43;100108.31;5027294;28;20025;-77
2022/03/23 06:43:14;;;;;;;12.30;7.97;;;;;;;12.80;36.77;100099.53;5029812;28;20431;-76
2022/03/23 06:45:42;;;;;;;14.55;7.90;;;;;;;13.05;35.34;100112.88;5029416;28;20033;-76
2022/03/23 06:48:08;;;;;;;15.73;7.65;;;;;;;13.64;34.98;100120.97;5027455;28;20021;-76
2022/03/23 06:50:34;;;;;;;14.38;7.13;;;;;;;13.20;35.77;100115.56;5035611;28;20056;-77
2022/03/23 06:53:00;;;;;;;13.48;8.07;;;;;;;13.42;35.38;100116.53;5026618;28;20061;-73
2022/03/23 06:55:25;;;;;;;14.68;7.80;;;;;;;13.31;35.47;100112.41;5037233;28;20108;-79
2022/03/23 06:57:51;;;;;;;14.65;8.07;;;;;;;13.73;35.46;100094.53;5026599;28;20029;-76
2022/03/23 07:00:16;;;;;;;13.60;7.25;;;;;;;15.17;33.50;100130.56;5029658;28;20067;-72
2022/03/23 07:02:47;;;;;;;12.20;7.10;;;;;;;14.37;33.76;100131.78;5027524;28;20514;-69
2022/03/23 07:05:14;;;;;;;10.38;7.53;;;;;;;15.14;33.85;100128.19;5034043;28;20038;-75
2022/03/23 07:09:31;;;;;;;14.13;8.00;;;;;;;15.15;33.09;100134.53;5022377;28;20025;-78
2022/03/23 07:10:30;;;;;;;14.32;7.30;;;;;;;16.50;31.10;100127.41;5034030;28;20025;-78
2022/03/23 07:12:56;;;;;;;15.00;8.20;;;;;;;17.43;29.71;100127.31;5049407;28;20040;-76
2022/03/23 07:15:22;;;;;;;15.40;7.55;;;;;;;18.98;28.07;100133.31;5035516;28;20025;-71
2022/03/23 07:17:47;;;;;;;16.75;8.30;;;;;;;18.91;27.16;100120.72;5034770;28;20029;-79
2022/03/23 07:20:12;;;;;;;11.13;7.63;;;;;;;18.23;27.24;100115.97;5040080;28;20033;-77
2022/03/23 07:22:38;;;;;;;11.50;7.80;;;;;;;18.75;26.56;100125.72;5025208;28;20112;-77
2022/03/23 07:25:05;;;;;;;9.63;7.20;;;;;;;19.08;26.25;100108.09;5031764;28;20036;-76
2022/03/23 07:27:30;;;;;;;11.05;7.25;;;;;;;19.77;25.70;100124.44;5040540;28;20116;-77
2022/03/23 07:29:56;;;;;;;10.30;7.55;;;;;;;20.46;24.82;100134.00;5041508;28;20063;-74
2022/03/23 07:32:21;;;;;;;10.00;7.38;;;;;;;20.25;24.62;100129.03;5039692;28;20033;-72
2022/03/23 07:34:47;;;;;;;13.43;7.25;;;;;;;20.64;24.31;100138.59;5030886;28;20502;-73
2022/03/23 07:37:12;;;;;;;11.88;7.35;;;;;;;20.74;24.07;100127.00;5031746;28;20026;-72
2022/03/23 07:39:38;;;;;;;9.10;7.03;;;;;;;20.76;24.16;100136.69;5030484;28;20032;-77
2022/03/23 07:42:03;;;;;;;12.50;7.10;;;;;;;20.73;24.90;100141.84;5034837;28;20034;-75
2022/03/23 07:44:34;;;;;;;13.02;7.43;;;;;;;20.41;25.01;100146.75;5032041;28;20044;-79
2022/03/23 07:46:59;;;;;;;10.05;7.47;;;;;;;19.83;25.15;100131.72;5031577;28;20028;-76
2022/03/23 07:49:25;;;;;;;10.98;7.80;;;;;;;19.98;25.42;100121.19;5034346;28;20449;-72
2022/03/23 07:51:51;;;;;;;10.63;8.15;;;;;;;21.46;23.79;100137.78;5033269;28;20030;-72
2022/03/23 07:54:16;;;;;;;14.82;9.10;;;;;;;19.35;25.41;100146.22;5027538;28;20025;-72
2022/03/23 07:56:42;;;;;;;17.02;9.82;;;;;;;19.98;25.31;100142.31;5037484;28;20441;-72
2022/03/23 07:59:07;;;;;;;16.98;9.10;;;;;;;20.79;24.33;100122.47;5027610;28;20048;-72
2022/03/23 08:01:33;;;;;;;16.58;9.65;;;;;;;21.57;23.76;100145.19;5028623;28;20021;-72
2022/03/23 08:04:00;;;;;;;15.15;8.77;;;;;;;21.61;23.68;100127.09;5025549;28;20029;-73
2022/03/23 08:06:26;;;;;;;13.38;8.55;;;;;;;21.24;24.11;100135.63;5028790;28;20026;-76
2022/03/23 08:08:52;;;;;;;11.25;8.02;;;;;;;21.99;23.54;100153.19;5037501;28;20022;-78
2022/03/23 08:11:18;;;;;;;11.63;7.65;;;;;;;22.51;23.07;100125.53;5042556;28;20635;-74
2022/03/23 08:13:43;;;;;;;14.07;7.82;;;;;;;20.74;24.80;100127.00;5024471;28;20034;-74
2022/03/23 08:16:09;;;;;;;11.93;8.23;;;;;;;20.93;24.54;100138.75;5036332;28;20058;-72
2022/03/23 08:18:35;;;;;;;12.23;8.15;;;;;;;21.79;23.96;100150.03;5031806;28;20056;-73
2022/03/23 08:21:00;;;;;;;16.48;8.65;;;;;;;22.12;23.61;100154.00;5033492;28;20071;-72
2022/03/23 08:23:26;;;;;;;14.20;8.98;;;;;;;20.98;24.69;100131.44;5027372;28;20788;-72
2022/03/23 08:25:51;;;;;;;14.48;9.43;;;;;;;20.58;24.08;100148.63;5023283;28;20108;-71
2022/03/23 08:28:17;;;;;;;13.57;9.13;;;;;;;21.07;24.16;100126.44;5022341;28;20068;-73
2022/03/23 08:30:43;;;;;;;13.95;9.63;;;;;;;21.90;24.00;100149.16;5028296;28;20100;-73
2022/03/23 08:33:09;;;;;;;15.85;10.35;;;;;;;22.36;23.33;100125.25;5020470;28;20025;-73
2022/03/23 08:35:35;;;;;;;21.23;11.13;;;;;;;22.18;23.14;100117.16;5029869;28;20029;-72
2022/03/23 08:38:01;;;;;;;13.13;9.75;;;;;;;22.96;22.99;100143.94;5024274;28;20396;-73
2022/03/23 08:40:27;;;;;;;16.27;10.77;;;;;;;21.62;23.98;100134.28;5038225;28;20029;-73
2022/03/23 08:42:52;;;;;;;13.70;10.00;;;;;;;22.72;23.33;100150.69;5019793;28;20398;-73
2022/03/23 08:45:18;;;;;;;20.63;11.30;;;;;;;24.38;21.80;100134.97;5026701;28;20118;-73
2022/03/23 08:47:45;;;;;;;15.15;10.85;;;;;;;23.54;22.48;100136.19;5029283;28;20029;-73
2022/03/23 08:50:12;;;;;;;17.35;11.40;;;;;;;24.41;21.25;100133.59;5026194;28;20021;-73
2022/03/23 08:52:39;;;;;;;13.63;10.85;;;;;;;23.34;22.85;100124.88;5027285;28;20042;-76
2022/03/23 08:55:07;;;;;;;16.85;11.25;;;;;;;23.19;22.41;100129.09;5030676;28;20140;-72
2022/03/23 08:57:32;;;;;;;17.08;12.10;;;;;;;22.81;23.47;100129.03;5019373;28;20048;-74
2022/03/23 08:59:58;;;;;;;18.10;11.82;;;;;;;23.83;21.77;100125.81;5036849;28;20059;-74
2022/03/23 09:02:23;;;;;;;17.77;11.75;;;;;;;23.39;22.99;100134.06;5025560;28;20510;-77
2022/03/23 09:04:49;;;;;;;15.73;11.32;;;;;;;23.50;22.93;100117.63;5033145;28;20487;-73
2022/03/23 09:07:14;;;;;;;18.48;12.02;;;;;;;21.29;25.00;100139.56;5031813;28;20087;-73
2022/03/23 09:09:39;;;;;;;19.75;12.65;;;;;;;23.23;23.05;100129.41;5028018;28;20021;-72
2022/03/23 09:12:05;;;;;;;19.38;12.38;;;;;;;24.46;21.88;100108.78;5021806;28;20025;-71
2022/03/23 09:14:31;;;;;;;19.10;12.63;;;;;;;23.36;22.59;100100.59;5028273;28;20122;-73
2022/03/23 09:16:56;;;;;;;16.45;11.70;;;;;;;24.67;22.11;100121.69;5031401;28;20032;-73
2022/03/23 09:19:21;;;;;;;16.80;12.32;;;;;;;24.07;22.39;100122.75;5023709;28;20518;-73
2022/03/23 09:21:49;;;;;;;24.08;12.30;;;;;;;25.67;20.55;100125.66;5028160;28;20436;-73
2022/03/23 09:24:17;;;;;;;17.00;12.50;;;;;;;25.48;20.54;100067.94;5032668;28;20044;-77
2022/03/23 09:26:43;;;;;;;17.92;12.32;;;;;;;25.53;20.98;100114.25;5049442;28;20040;-80
2022/03/23 09:29:08;;;;;;;18.40;11.80;;;;;;;27.37;18.71;100113.63;5052457;22;20049;-74
2022/03/23 09:31:35;;;;;;;21.75;12.48;;;;;;;25.85;20.17;100121.59;5047914;28;20115;-76
2022/03/23 09:34:02;;;;;;;17.45;12.18;;;;;;;26.69;19.49;100120.38;5060599;28;20498;-71
2022/03/23 09:39:13;;;;;;;18.00;11.93;;;;;;;25.14;20.85;100123.69;5032434;28;20048;-69
2022/03/23 09:41:38;;;;;;;21.95;12.32;;;;;;;26.84;19.19;100128.69;5018254;28;20022;-70
2022/03/23 09:44:05;;;;;;;17.42;11.75;;;;;;;26.39;18.60;100119.22;5027632;28;20032;-71
2022/03/23 09:46:32;;;;;;;15.65;10.82;;;;;;;26.28;19.03;100116.69;5030266;28;20021;-72
2022/03/23 09:48:57;;;;;;;18.05;12.60;;;;;;;26.33;18.93;100109.22;5023189;28;20084;-77
2022/03/23 09:51:23;;;;;;;15.93;12.07;;;;;;;27.73;17.93;100098.44;5019427;28;20014;-74
2022/03/23 09:53:49;;;;;;;22.50;12.20;;;;;;;27.49;17.92;100091.91;5024623;28;20071;-75
2022/03/23 09:56:15;;;;;;;14.05;11.95;;;;;;;27.17;18.27;100087.56;5027393;28;20032;-73
2022/03/23 09:58:42;;;;;;;18.55;11.68;;;;;;;26.63;19.07;100107.59;5021907;28;20855;-74
2022/03/23 10:01:28;;;;;;;16.38;12.35;;;;;;;26.01;18.96;100109.44;5025960;28;20394;-75
2022/03/23 10:04:27;;;;;;;14.95;10.85;;;;;;;25.25;18.80;100108.00;5043713;28;20030;-68
2022/03/23 10:07:15;;;;;;;17.73;11.50;;;;;;;26.18;18.77;100107.25;5022482;28;20025;-74
2022/03/23 10:09:49;;;;;;;15.57;11.30;;;;;;;26.23;19.39;100109.22;5023749;28;20656;-72
2022/03/23 10:12:39;;;;;;;15.60;10.50;;;;;;;26.48;18.09;100105.63;5043694;28;20033;-72
2022/03/23 10:15:42;;;;;;;12.98;10.48;;;;;;;25.70;17.00;100106.56;5020336;28;20030;-71
2022/03/23 10:18:31;;;;;;;16.45;10.13;;;;;;;25.97;17.86;100086.97;5021639;28;20022;-71
2022/03/23 10:20:57;;;;;;;13.23;10.43;;;;;;;27.79;17.35;100087.31;5028064;28;20026;-71
2022/03/23 10:23:22;;;;;;;12.93;10.13;;;;;;;27.17;17.47;100081.13;5023065;28;20040;-74
2022/03/23 10:25:48;;;;;;;13.68;10.15;;;;;;;29.11;16.31;100071.56;5023695;28;20320;-73
2022/03/23 10:28:14;;;;;;;14.80;10.77;;;;;;;28.73;16.62;100090.03;5023464;28;20080;-73
2022/03/23 10:30:42;;;;;;;12.95;9.98;;;;;;;29.29;15.89;100086.66;5029781;28;20017;-72
2022/03/23 10:33:22;;;;;;;12.15;8.75;;;;;;;30.87;15.99;100082.75;5025869;28;20025;-73
2022/03/23 10:35:47;;;;;;;11.80;10.00;;;;;;;30.45;15.12;100081.78;5027468;28;20443;-72
2022/03/23 10:38:21;;;;;;;16.75;11.07;;;;;;;29.10;16.97;100064.31;5018813;28;20045;-71
2022/03/23 10:40:49;;;;;;;13.23;10.48;;;;;;;28.97;16.34;100076.97;5021868;28;20060;-71
2022/03/23 10:43:37;;;;;;;14.17;10.13;;;;;;;29.67;17.04;100067.28;5030626;28;20025;-71
2022/03/23 10:46:09;;;;;;;14.07;10.75;;;;;;;29.62;16.27;100040.25;5022137;28;20036;-73
2022/03/23 10:48:35;;;;;;;11.52;8.75;;;;;;;29.52;15.88;100071.06;5023765;28;20112;-72
2022/03/23 10:51:00;;;;;;;12.07;9.45;;;;;;;28.28;15.88;100059.47;5033877;28;20428;-74
2022/03/23 10:53:36;;;;;;;11.13;8.98;;;;;;;29.49;16.02;100039.03;5045792;28;20025;-73
2022/03/23 10:56:03;;;;;;;10.75;8.50;;;;;;;29.49;14.91;100008.34;5020998;28;20030;-74
2022/03/23 10:58:29;;;;;;;12.00;7.80;;;;;;;28.27;15.14;100045.84;5029756;28;20022;-75
2022/03/23 11:01:12;;;;;;;12.55;8.35;;;;;;;28.02;16.54;100058.00;5043117;28;20026;-73
2022/03/23 11:03:40;;;;;;;11.07;9.13;;;;;;;28.65;15.49;100041.34;5045521;28;20022;-76
2022/03/23 11:06:08;;;;;;;14.95;8.35;;;;;;;28.49;16.79;100043.47;5030331;28;20025;-69
2022/03/23 11:08:33;;;;;;;8.95;8.02;;;;;;;29.86;15.10;100036.59;5028199;28;20037;-69
2022/03/23 11:16:35;;;;;;;9.45;7.65;;;;;;;29.72;14.80;100033.75;5029095;28;20121;-68
2022/03/23 11:19:10;;;;;;;10.30;8.52;;;;;;;28.80;15.42;100032.84;5024108;28;20037;-69
2022/03/23 11:22:04;;;;;;;9.30;7.38;;;;;;;29.18;15.26;100034.97;5026295;28;20103;-69
2022/03/23 11:24:41;;;;;;;10.68;8.13;;;;;;;28.12;16.30;100027.31;5039958;28;20030;-69
2022/03/23 11:27:08;;;;;;;9.75;7.50;;;;;;;29.56;15.92;100026.69;5025218;28;20079;-69
2022/03/23 11:29:36;;;;;;;9.25;6.95;;;;;;;30.43;14.78;100011.44;5040438;28;20029;-69
2022/03/23 11:32:04;;;;;;;9.32;7.90;;;;;;;30.06;14.63;100016.75;5022548;28;20034;-69
2022/03/23 11:34:33;;;;;;;7.95;6.03;;;;;;;31.94;14.18;100004.19;5026038;28;20065;-69